Main page
METAR-TAF:

METAR-TAF

Airports :

Forlì, Italy

Forlì Airport

latitude: 44-12N, longitude: 012-04E, elevation: 27 m

Current weather observation

The report was made 30 minutes ago, at 14:50 UTC
Wind 2 kt from variable directions
Temperature 13°C
Humidity 82%
Pressure 1011 hPa
Visibility 10 km or more
Scattered clouds at a height of 1500 ft
Broken clouds at a height of 5000 ft

METAR: LIPK 191450Z VRB02KT 9999 SCT015 BKN050 13/10 Q1011

Time: 17:20 (15:20 UTC)


TAF: missing

Weather observations and forecasts of more than 4000 airports (METAR and TAF reports).

The available stations are represented by yellow and red dots on the map.

Hover mouse over dot to see the name of the station.

Then click to see weather observations and forecasts.

To change the map : click on the green buttons with a black cross to zoom in, on the green button with a dash to zoom out, or on the green arrows for adjacent maps.


METAR-TAF: